sensor_id;sensor_type;location;lat;lon;timestamp;P1;durP1;ratioP1;P2;durP2;ratioP2
51636;SDS011;37713;53.254;6.460;2023-05-14T00:01:32;16.02;;;7.90;;
51636;SDS011;37713;53.254;6.460;2023-05-14T00:03:58;16.08;;;8.23;;
51636;SDS011;37713;53.254;6.460;2023-05-14T00:06:24;18.38;;;8.68;;
51636;SDS011;37713;53.254;6.460;2023-05-14T00:08:50;17.27;;;8.68;;
51636;SDS011;37713;53.254;6.460;2023-05-14T00:11:16;17.05;;;8.57;;
51636;SDS011;37713;53.254;6.460;2023-05-14T00:13:42;16.65;;;8.07;;
51636;SDS011;37713;53.254;6.460;2023-05-14T00:16:07;14.07;;;9.05;;
51636;SDS011;37713;53.254;6.460;2023-05-14T00:18:33;20.45;;;9.50;;
51636;SDS011;37713;53.254;6.460;2023-05-14T00:20:59;19.13;;;8.52;;
51636;SDS011;37713;53.254;6.460;2023-05-14T00:23:25;17.88;;;8.15;;
51636;SDS011;37713;53.254;6.460;2023-05-14T00:25:51;15.82;;;7.75;;
51636;SDS011;37713;53.254;6.460;2023-05-14T00:28:16;15.50;;;7.90;;
51636;SDS011;37713;53.254;6.460;2023-05-14T00:30:42;16.15;;;7.82;;
51636;SDS011;37713;53.254;6.460;2023-05-14T00:33:08;17.33;;;8.98;;
51636;SDS011;37713;53.254;6.460;2023-05-14T00:35:34;20.05;;;8.70;;
51636;SDS011;37713;53.254;6.460;2023-05-14T00:38:00;14.57;;;7.65;;
51636;SDS011;37713;53.254;6.460;2023-05-14T00:40:27;12.93;;;7.45;;
51636;SDS011;37713;53.254;6.460;2023-05-14T00:42:53;13.57;;;7.72;;
51636;SDS011;37713;53.254;6.460;2023-05-14T00:45:19;12.68;;;7.13;;
51636;SDS011;37713;53.254;6.460;2023-05-14T00:47:46;13.60;;;6.70;;
51636;SDS011;37713;53.254;6.460;2023-05-14T00:50:13;14.95;;;7.35;;
51636;SDS011;37713;53.254;6.460;2023-05-14T00:52:40;15.20;;;6.63;;
51636;SDS011;37713;53.254;6.460;2023-05-14T00:55:06;13.40;;;6.60;;
51636;SDS011;37713;53.254;6.460;2023-05-14T00:57:33;13.32;;;7.03;;
51636;SDS011;37713;53.254;6.460;2023-05-14T01:00:00;14.40;;;6.90;;
51636;SDS011;37713;53.254;6.460;2023-05-14T01:02:27;16.40;;;7.35;;
51636;SDS011;37713;53.254;6.460;2023-05-14T01:04:53;14.32;;;6.88;;
51636;SDS011;37713;53.254;6.460;2023-05-14T01:09:58;15.45;;;7.53;;
51636;SDS011;37713;53.254;6.460;2023-05-14T01:13:03;15.15;;;7.47;;
51636;SDS011;37713;53.254;6.460;2023-05-14T01:15:38;16.38;;;7.97;;
51636;SDS011;37713;53.254;6.460;2023-05-14T01:18:09;16.88;;;7.88;;
51636;SDS011;37713;53.254;6.460;2023-05-14T01:20:37;18.98;;;8.32;;
51636;SDS011;37713;53.254;6.460;2023-05-14T01:23:03;12.85;;;7.85;;
51636;SDS011;37713;53.254;6.460;2023-05-14T01:25:29;16.35;;;8.65;;
51636;SDS011;37713;53.254;6.460;2023-05-14T01:27:58;16.40;;;9.13;;
51636;SDS011;37713;53.254;6.460;2023-05-14T01:30:31;19.98;;;9.18;;
51636;SDS011;37713;53.254;6.460;2023-05-14T01:33:12;14.50;;;9.00;;
51636;SDS011;37713;53.254;6.460;2023-05-14T01:35:39;22.67;;;10.00;;
51636;SDS011;37713;53.254;6.460;2023-05-14T01:38:06;18.25;;;9.73;;
51636;SDS011;37713;53.254;6.460;2023-05-14T01:40:35;15.93;;;9.00;;
51636;SDS011;37713;53.254;6.460;2023-05-14T01:43:01;17.35;;;9.75;;
51636;SDS011;37713;53.254;6.460;2023-05-14T01:45:28;21.55;;;9.63;;
51636;SDS011;37713;53.254;6.460;2023-05-14T01:47:55;19.23;;;9.18;;
51636;SDS011;37713;53.254;6.460;2023-05-14T01:50:21;16.55;;;9.80;;
51636;SDS011;37713;53.254;6.460;2023-05-14T01:52:46;18.83;;;10.52;;
51636;SDS011;37713;53.254;6.460;2023-05-14T01:55:13;18.88;;;9.52;;
51636;SDS011;37713;53.254;6.460;2023-05-14T01:57:40;18.30;;;9.80;;
51636;SDS011;37713;53.254;6.460;2023-05-14T02:00:06;21.88;;;9.88;;
51636;SDS011;37713;53.254;6.460;2023-05-14T02:02:32;23.25;;;8.60;;
51636;SDS011;37713;53.254;6.460;2023-05-14T02:04:58;18.65;;;8.65;;
51636;SDS011;37713;53.254;6.460;2023-05-14T02:07:23;20.90;;;9.18;;
51636;SDS011;37713;53.254;6.460;2023-05-14T02:09:49;15.90;;;9.55;;
51636;SDS011;37713;53.254;6.460;2023-05-14T02:12:15;17.60;;;8.88;;
51636;SDS011;37713;53.254;6.460;2023-05-14T02:14:41;18.23;;;8.77;;
51636;SDS011;37713;53.254;6.460;2023-05-14T02:17:07;16.63;;;8.25;;
51636;SDS011;37713;53.254;6.460;2023-05-14T02:19:33;23.17;;;9.23;;
51636;SDS011;37713;53.254;6.460;2023-05-14T02:21:58;15.68;;;8.43;;
51636;SDS011;37713;53.254;6.460;2023-05-14T02:24:25;22.13;;;9.23;;
51636;SDS011;37713;53.254;6.460;2023-05-14T02:26:51;21.17;;;8.55;;
51636;SDS011;37713;53.254;6.460;2023-05-14T02:29:17;20.20;;;10.13;;
51636;SDS011;37713;53.254;6.460;2023-05-14T02:31:42;20.85;;;9.75;;
51636;SDS011;37713;53.254;6.460;2023-05-14T02:34:08;18.02;;;8.95;;
51636;SDS011;37713;53.254;6.460;2023-05-14T02:36:34;19.15;;;10.07;;
51636;SDS011;37713;53.254;6.460;2023-05-14T02:39:00;18.75;;;10.23;;
51636;SDS011;37713;53.254;6.460;2023-05-14T02:41:26;22.08;;;11.05;;
51636;SDS011;37713;53.254;6.460;2023-05-14T02:43:52;20.25;;;10.73;;
51636;SDS011;37713;53.254;6.460;2023-05-14T02:46:18;21.50;;;11.73;;
51636;SDS011;37713;53.254;6.460;2023-05-14T02:48:44;25.35;;;11.00;;
51636;SDS011;37713;53.254;6.460;2023-05-14T02:51:09;21.42;;;11.40;;
51636;SDS011;37713;53.254;6.460;2023-05-14T02:53:36;25.05;;;10.48;;
51636;SDS011;37713;53.254;6.460;2023-05-14T02:56:01;26.13;;;10.73;;
51636;SDS011;37713;53.254;6.460;2023-05-14T02:58:27;21.02;;;10.88;;
51636;SDS011;37713;53.254;6.460;2023-05-14T03:00:53;22.85;;;11.25;;
51636;SDS011;37713;53.254;6.460;2023-05-14T03:03:19;26.02;;;11.73;;
51636;SDS011;37713;53.254;6.460;2023-05-14T03:05:45;29.00;;;11.45;;
51636;SDS011;37713;53.254;6.460;2023-05-14T03:08:11;24.30;;;11.63;;
51636;SDS011;37713;53.254;6.460;2023-05-14T03:10:36;21.90;;;10.63;;
51636;SDS011;37713;53.254;6.460;2023-05-14T03:13:02;23.58;;;11.35;;
51636;SDS011;37713;53.254;6.460;2023-05-14T03:15:28;22.23;;;10.63;;
51636;SDS011;37713;53.254;6.460;2023-05-14T03:17:54;21.58;;;11.60;;
51636;SDS011;37713;53.254;6.460;2023-05-14T03:20:20;20.73;;;11.73;;
51636;SDS011;37713;53.254;6.460;2023-05-14T03:22:46;20.70;;;11.15;;
51636;SDS011;37713;53.254;6.460;2023-05-14T03:25:12;24.17;;;10.85;;
51636;SDS011;37713;53.254;6.460;2023-05-14T03:27:38;19.95;;;10.70;;
51636;SDS011;37713;53.254;6.460;2023-05-14T03:30:04;22.13;;;10.88;;
51636;SDS011;37713;53.254;6.460;2023-05-14T03:32:31;25.08;;;10.00;;
51636;SDS011;37713;53.254;6.460;2023-05-14T03:34:56;18.27;;;10.02;;
51636;SDS011;37713;53.254;6.460;2023-05-14T03:37:22;18.48;;;9.82;;
51636;SDS011;37713;53.254;6.460;2023-05-14T03:39:48;19.73;;;9.07;;
51636;SDS011;37713;53.254;6.460;2023-05-14T03:42:14;21.52;;;8.98;;
51636;SDS011;37713;53.254;6.460;2023-05-14T03:44:40;20.65;;;9.30;;
51636;SDS011;37713;53.254;6.460;2023-05-14T03:47:06;16.95;;;9.10;;
51636;SDS011;37713;53.254;6.460;2023-05-14T03:49:31;21.85;;;8.90;;
51636;SDS011;37713;53.254;6.460;2023-05-14T03:51:57;20.17;;;8.55;;
51636;SDS011;37713;53.254;6.460;2023-05-14T03:54:23;19.65;;;8.95;;
51636;SDS011;37713;53.254;6.460;2023-05-14T03:56:51;19.52;;;8.57;;
51636;SDS011;37713;53.254;6.460;2023-05-14T03:59:17;15.13;;;8.10;;
51636;SDS011;37713;53.254;6.460;2023-05-14T04:01:43;18.92;;;8.23;;
51636;SDS011;37713;53.254;6.460;2023-05-14T04:04:09;19.40;;;7.40;;
51636;SDS011;37713;53.254;6.460;2023-05-14T04:06:35;23.08;;;7.90;;
51636;SDS011;37713;53.254;6.460;2023-05-14T04:09:01;20.63;;;7.72;;
51636;SDS011;37713;53.254;6.460;2023-05-14T04:11:27;18.15;;;7.07;;
51636;SDS011;37713;53.254;6.460;2023-05-14T04:13:53;23.42;;;8.20;;
51636;SDS011;37713;53.254;6.460;2023-05-14T04:16:19;29.25;;;8.88;;
51636;SDS011;37713;53.254;6.460;2023-05-14T04:18:45;21.80;;;7.97;;
51636;SDS011;37713;53.254;6.460;2023-05-14T04:21:10;17.63;;;8.05;;
51636;SDS011;37713;53.254;6.460;2023-05-14T04:23:36;21.83;;;8.30;;
51636;SDS011;37713;53.254;6.460;2023-05-14T04:26:02;19.10;;;8.52;;
51636;SDS011;37713;53.254;6.460;2023-05-14T04:28:29;21.05;;;8.00;;
51636;SDS011;37713;53.254;6.460;2023-05-14T04:30:55;20.63;;;8.48;;
51636;SDS011;37713;53.254;6.460;2023-05-14T04:33:20;23.00;;;8.90;;
51636;SDS011;37713;53.254;6.460;2023-05-14T04:35:46;24.90;;;9.38;;
51636;SDS011;37713;53.254;6.460;2023-05-14T04:38:12;24.55;;;9.57;;
51636;SDS011;37713;53.254;6.460;2023-05-14T04:40:38;22.95;;;9.23;;
51636;SDS011;37713;53.254;6.460;2023-05-14T04:43:05;21.38;;;9.45;;
51636;SDS011;37713;53.254;6.460;2023-05-14T04:45:32;26.30;;;9.82;;
51636;SDS011;37713;53.254;6.460;2023-05-14T04:47:58;23.15;;;10.65;;
51636;SDS011;37713;53.254;6.460;2023-05-14T04:50:24;21.38;;;9.70;;
51636;SDS011;37713;53.254;6.460;2023-05-14T04:52:50;24.88;;;10.40;;
51636;SDS011;37713;53.254;6.460;2023-05-14T04:55:16;27.13;;;10.35;;
51636;SDS011;37713;53.254;6.460;2023-05-14T04:57:42;23.52;;;9.90;;
51636;SDS011;37713;53.254;6.460;2023-05-14T05:00:08;23.25;;;10.15;;
51636;SDS011;37713;53.254;6.460;2023-05-14T05:02:35;17.08;;;8.65;;
51636;SDS011;37713;53.254;6.460;2023-05-14T05:05:01;28.25;;;9.80;;
51636;SDS011;37713;53.254;6.460;2023-05-14T05:07:28;22.02;;;9.07;;
51636;SDS011;37713;53.254;6.460;2023-05-14T05:09:53;25.42;;;9.20;;
51636;SDS011;37713;53.254;6.460;2023-05-14T05:12:19;26.00;;;9.68;;
51636;SDS011;37713;53.254;6.460;2023-05-14T05:14:45;23.70;;;9.88;;
51636;SDS011;37713;53.254;6.460;2023-05-14T05:17:11;21.92;;;8.65;;
51636;SDS011;37713;53.254;6.460;2023-05-14T05:19:37;20.35;;;8.73;;
51636;SDS011;37713;53.254;6.460;2023-05-14T05:22:03;20.58;;;8.77;;
51636;SDS011;37713;53.254;6.460;2023-05-14T05:24:29;24.75;;;8.90;;
51636;SDS011;37713;53.254;6.460;2023-05-14T05:26:55;24.42;;;8.60;;
51636;SDS011;37713;53.254;6.460;2023-05-14T05:29:21;17.92;;;8.32;;
51636;SDS011;37713;53.254;6.460;2023-05-14T05:31:47;21.63;;;8.23;;
51636;SDS011;37713;53.254;6.460;2023-05-14T05:34:13;23.50;;;7.75;;
51636;SDS011;37713;53.254;6.460;2023-05-14T05:36:39;25.17;;;7.75;;
51636;SDS011;37713;53.254;6.460;2023-05-14T05:39:05;17.95;;;6.70;;
51636;SDS011;37713;53.254;6.460;2023-05-14T05:41:31;21.30;;;7.38;;
51636;SDS011;37713;53.254;6.460;2023-05-14T05:43:57;21.00;;;7.60;;
51636;SDS011;37713;53.254;6.460;2023-05-14T05:46:22;23.77;;;6.95;;
51636;SDS011;37713;53.254;6.460;2023-05-14T05:48:48;20.70;;;7.20;;
51636;SDS011;37713;53.254;6.460;2023-05-14T05:51:14;19.63;;;7.68;;
51636;SDS011;37713;53.254;6.460;2023-05-14T05:53:40;17.30;;;7.05;;
51636;SDS011;37713;53.254;6.460;2023-05-14T05:56:05;19.00;;;7.20;;
51636;SDS011;37713;53.254;6.460;2023-05-14T05:58:32;22.05;;;7.25;;
51636;SDS011;37713;53.254;6.460;2023-05-14T06:00:57;17.15;;;6.57;;
51636;SDS011;37713;53.254;6.460;2023-05-14T06:03:23;20.05;;;8.23;;
51636;SDS011;37713;53.254;6.460;2023-05-14T06:05:49;16.33;;;7.22;;
51636;SDS011;37713;53.254;6.460;2023-05-14T06:08:16;18.55;;;7.00;;
51636;SDS011;37713;53.254;6.460;2023-05-14T06:10:43;17.75;;;7.55;;
51636;SDS011;37713;53.254;6.460;2023-05-14T06:13:09;15.23;;;6.80;;
51636;SDS011;37713;53.254;6.460;2023-05-14T06:15:35;19.92;;;6.63;;
51636;SDS011;37713;53.254;6.460;2023-05-14T06:18:01;16.58;;;6.82;;
51636;SDS011;37713;53.254;6.460;2023-05-14T06:20:27;15.35;;;6.90;;
51636;SDS011;37713;53.254;6.460;2023-05-14T06:22:52;15.93;;;6.43;;
51636;SDS011;37713;53.254;6.460;2023-05-14T06:25:18;17.30;;;7.40;;
51636;SDS011;37713;53.254;6.460;2023-05-14T06:27:44;15.85;;;7.47;;
51636;SDS011;37713;53.254;6.460;2023-05-14T06:30:10;17.23;;;7.55;;
51636;SDS011;37713;53.254;6.460;2023-05-14T06:32:36;16.20;;;7.18;;
51636;SDS011;37713;53.254;6.460;2023-05-14T06:35:02;18.13;;;7.18;;
51636;SDS011;37713;53.254;6.460;2023-05-14T06:37:28;15.98;;;7.47;;
51636;SDS011;37713;53.254;6.460;2023-05-14T06:39:54;19.15;;;7.18;;
51636;SDS011;37713;53.254;6.460;2023-05-14T06:42:20;16.35;;;7.43;;
51636;SDS011;37713;53.254;6.460;2023-05-14T06:44:45;14.45;;;6.88;;
51636;SDS011;37713;53.254;6.460;2023-05-14T06:47:12;13.82;;;6.55;;
51636;SDS011;37713;53.254;6.460;2023-05-14T06:49:37;17.55;;;7.30;;
51636;SDS011;37713;53.254;6.460;2023-05-14T06:52:03;14.15;;;6.65;;
51636;SDS011;37713;53.254;6.460;2023-05-14T06:54:29;16.23;;;7.00;;
51636;SDS011;37713;53.254;6.460;2023-05-14T06:56:55;16.88;;;7.43;;
51636;SDS011;37713;53.254;6.460;2023-05-14T06:59:21;18.63;;;7.25;;
51636;SDS011;37713;53.254;6.460;2023-05-14T07:01:47;17.20;;;7.65;;
51636;SDS011;37713;53.254;6.460;2023-05-14T07:04:13;16.35;;;7.35;;
51636;SDS011;37713;53.254;6.460;2023-05-14T07:06:39;16.98;;;7.57;;
51636;SDS011;37713;53.254;6.460;2023-05-14T07:09:05;14.77;;;7.63;;
51636;SDS011;37713;53.254;6.460;2023-05-14T07:11:31;13.80;;;7.85;;
51636;SDS011;37713;53.254;6.460;2023-05-14T07:13:57;17.52;;;7.85;;
51636;SDS011;37713;53.254;6.460;2023-05-14T07:16:23;15.80;;;6.80;;
51636;SDS011;37713;53.254;6.460;2023-05-14T07:18:50;14.00;;;6.88;;
51636;SDS011;37713;53.254;6.460;2023-05-14T07:21:16;17.10;;;6.50;;
51636;SDS011;37713;53.254;6.460;2023-05-14T07:23:42;15.10;;;5.97;;
51636;SDS011;37713;53.254;6.460;2023-05-14T07:26:07;15.10;;;5.60;;
51636;SDS011;37713;53.254;6.460;2023-05-14T07:28:33;20.92;;;6.10;;
51636;SDS011;37713;53.254;6.460;2023-05-14T07:30:59;17.35;;;6.20;;
51636;SDS011;37713;53.254;6.460;2023-05-14T07:33:25;17.10;;;6.05;;
51636;SDS011;37713;53.254;6.460;2023-05-14T07:35:51;15.70;;;6.30;;
51636;SDS011;37713;53.254;6.460;2023-05-14T07:38:18;14.88;;;6.05;;
51636;SDS011;37713;53.254;6.460;2023-05-14T07:40:44;15.50;;;6.53;;
51636;SDS011;37713;53.254;6.460;2023-05-14T07:43:10;17.88;;;6.05;;
51636;SDS011;37713;53.254;6.460;2023-05-14T07:45:36;12.52;;;5.68;;
51636;SDS011;37713;53.254;6.460;2023-05-14T07:48:03;17.50;;;6.22;;
51636;SDS011;37713;53.254;6.460;2023-05-14T07:50:29;14.52;;;6.38;;
51636;SDS011;37713;53.254;6.460;2023-05-14T07:52:55;18.85;;;6.72;;
51636;SDS011;37713;53.254;6.460;2023-05-14T07:55:21;17.02;;;6.22;;
51636;SDS011;37713;53.254;6.460;2023-05-14T07:57:47;15.57;;;6.13;;
51636;SDS011;37713;53.254;6.460;2023-05-14T08:00:13;16.48;;;6.45;;
51636;SDS011;37713;53.254;6.460;2023-05-14T08:02:40;11.77;;;5.78;;
51636;SDS011;37713;53.254;6.460;2023-05-14T08:05:06;14.88;;;5.90;;
51636;SDS011;37713;53.254;6.460;2023-05-14T08:07:33;18.13;;;6.40;;
51636;SDS011;37713;53.254;6.460;2023-05-14T08:09:59;14.63;;;6.00;;
51636;SDS011;37713;53.254;6.460;2023-05-14T08:12:25;15.40;;;6.53;;
51636;SDS011;37713;53.254;6.460;2023-05-14T08:14:51;14.63;;;5.65;;
51636;SDS011;37713;53.254;6.460;2023-05-14T08:17:17;13.68;;;5.43;;
51636;SDS011;37713;53.254;6.460;2023-05-14T08:19:43;14.07;;;5.30;;
51636;SDS011;37713;53.254;6.460;2023-05-14T08:22:08;15.55;;;5.47;;
51636;SDS011;37713;53.254;6.460;2023-05-14T08:24:34;13.82;;;5.20;;
51636;SDS011;37713;53.254;6.460;2023-05-14T08:27:00;12.68;;;5.38;;
51636;SDS011;37713;53.254;6.460;2023-05-14T08:29:26;14.32;;;5.28;;
51636;SDS011;37713;53.254;6.460;2023-05-14T08:31:52;15.38;;;5.63;;
51636;SDS011;37713;53.254;6.460;2023-05-14T08:34:18;16.50;;;5.93;;
51636;SDS011;37713;53.254;6.460;2023-05-14T08:36:44;16.25;;;5.53;;
51636;SDS011;37713;53.254;6.460;2023-05-14T08:39:09;13.45;;;5.15;;
51636;SDS011;37713;53.254;6.460;2023-05-14T08:41:35;13.80;;;5.53;;
51636;SDS011;37713;53.254;6.460;2023-05-14T08:46:36;11.88;;;5.55;;
51636;SDS011;37713;53.254;6.460;2023-05-14T08:51:56;12.68;;;5.68;;
51636;SDS011;37713;53.254;6.460;2023-05-14T08:54:23;13.77;;;5.50;;
51636;SDS011;37713;53.254;6.460;2023-05-14T08:56:51;16.50;;;6.10;;
51636;SDS011;37713;53.254;6.460;2023-05-14T08:59:17;17.20;;;5.57;;
51636;SDS011;37713;53.254;6.460;2023-05-14T09:01:45;18.77;;;6.38;;
51636;SDS011;37713;53.254;6.460;2023-05-14T09:04:16;14.65;;;5.53;;
51636;SDS011;37713;53.254;6.460;2023-05-14T09:06:45;12.80;;;5.72;;
51636;SDS011;37713;53.254;6.460;2023-05-14T09:09:15;18.10;;;6.03;;
51636;SDS011;37713;53.254;6.460;2023-05-14T09:11:41;18.02;;;6.45;;
51636;SDS011;37713;53.254;6.460;2023-05-14T09:14:09;17.35;;;6.68;;
51636;SDS011;37713;53.254;6.460;2023-05-14T09:16:35;12.02;;;6.18;;
51636;SDS011;37713;53.254;6.460;2023-05-14T09:19:03;13.07;;;6.10;;
51636;SDS011;37713;53.254;6.460;2023-05-14T09:21:29;15.85;;;6.55;;
51636;SDS011;37713;53.254;6.460;2023-05-14T09:23:55;16.38;;;6.25;;
51636;SDS011;37713;53.254;6.460;2023-05-14T09:26:22;15.43;;;6.38;;
51636;SDS011;37713;53.254;6.460;2023-05-14T09:28:53;17.63;;;6.72;;
51636;SDS011;37713;53.254;6.460;2023-05-14T09:31:21;15.90;;;6.25;;
51636;SDS011;37713;53.254;6.460;2023-05-14T09:33:50;14.80;;;6.60;;
51636;SDS011;37713;53.254;6.460;2023-05-14T09:36:17;11.60;;;5.88;;
51636;SDS011;37713;53.254;6.460;2023-05-14T09:38:43;15.43;;;6.60;;
51636;SDS011;37713;53.254;6.460;2023-05-14T09:41:09;16.88;;;6.65;;
51636;SDS011;37713;53.254;6.460;2023-05-14T09:43:35;15.27;;;6.60;;
51636;SDS011;37713;53.254;6.460;2023-05-14T09:46:01;12.45;;;6.57;;
51636;SDS011;37713;53.254;6.460;2023-05-14T09:48:27;11.82;;;6.80;;
51636;SDS011;37713;53.254;6.460;2023-05-14T09:50:53;15.32;;;6.68;;
51636;SDS011;37713;53.254;6.460;2023-05-14T09:53:19;14.27;;;7.07;;
51636;SDS011;37713;53.254;6.460;2023-05-14T09:55:45;14.98;;;6.97;;
51636;SDS011;37713;53.254;6.460;2023-05-14T09:58:11;14.10;;;7.25;;
51636;SDS011;37713;53.254;6.460;2023-05-14T10:00:43;18.90;;;7.10;;
51636;SDS011;37713;53.254;6.460;2023-05-14T10:03:11;12.82;;;6.72;;
51636;SDS011;37713;53.254;6.460;2023-05-14T10:05:42;14.93;;;7.10;;
51636;SDS011;37713;53.254;6.460;2023-05-14T10:08:12;15.98;;;6.85;;
51636;SDS011;37713;53.254;6.460;2023-05-14T10:10:46;15.43;;;7.18;;
51636;SDS011;37713;53.254;6.460;2023-05-14T10:13:14;15.30;;;6.40;;
51636;SDS011;37713;53.254;6.460;2023-05-14T10:15:50;15.80;;;7.70;;
51636;SDS011;37713;53.254;6.460;2023-05-14T10:18:35;15.95;;;7.65;;
51636;SDS011;37713;53.254;6.460;2023-05-14T10:21:05;12.35;;;6.60;;
51636;SDS011;37713;53.254;6.460;2023-05-14T10:23:32;14.50;;;6.97;;
51636;SDS011;37713;53.254;6.460;2023-05-14T10:26:02;15.70;;;7.30;;
51636;SDS011;37713;53.254;6.460;2023-05-14T10:28:28;13.60;;;7.03;;
51636;SDS011;37713;53.254;6.460;2023-05-14T10:30:56;11.07;;;6.40;;
51636;SDS011;37713;53.254;6.460;2023-05-14T10:33:21;13.77;;;7.30;;
51636;SDS011;37713;53.254;6.460;2023-05-14T10:35:51;13.77;;;7.30;;
51636;SDS011;37713;53.254;6.460;2023-05-14T10:38:21;11.80;;;7.40;;
51636;SDS011;37713;53.254;6.460;2023-05-14T10:41:09;16.13;;;7.45;;
51636;SDS011;37713;53.254;6.460;2023-05-14T10:43:36;14.88;;;7.72;;
51636;SDS011;37713;53.254;6.460;2023-05-14T10:46:04;13.30;;;7.03;;
51636;SDS011;37713;53.254;6.460;2023-05-14T10:48:30;15.25;;;8.15;;
51636;SDS011;37713;53.254;6.460;2023-05-14T10:50:57;14.45;;;7.93;;
51636;SDS011;37713;53.254;6.460;2023-05-14T10:53:33;13.38;;;7.72;;
51636;SDS011;37713;53.254;6.460;2023-05-14T10:56:07;13.50;;;7.63;;
51636;SDS011;37713;53.254;6.460;2023-05-14T10:58:38;13.50;;;8.35;;
51636;SDS011;37713;53.254;6.460;2023-05-14T11:01:08;15.57;;;8.02;;
51636;SDS011;37713;53.254;6.460;2023-05-14T11:03:39;14.25;;;8.25;;
51636;SDS011;37713;53.254;6.460;2023-05-14T11:06:07;12.07;;;7.95;;
51636;SDS011;37713;53.254;6.460;2023-05-14T11:08:34;16.15;;;8.38;;
51636;SDS011;37713;53.254;6.460;2023-05-14T11:11:00;14.38;;;7.85;;
51636;SDS011;37713;53.254;6.460;2023-05-14T11:13:26;12.05;;;8.10;;
51636;SDS011;37713;53.254;6.460;2023-05-14T11:15:52;14.30;;;8.18;;
51636;SDS011;37713;53.254;6.460;2023-05-14T11:18:25;12.65;;;8.50;;
51636;SDS011;37713;53.254;6.460;2023-05-14T11:20:52;13.25;;;8.23;;
51636;SDS011;37713;53.254;6.460;2023-05-14T11:23:22;13.63;;;8.57;;
51636;SDS011;37713;53.254;6.460;2023-05-14T11:25:50;19.08;;;8.70;;
51636;SDS011;37713;53.254;6.460;2023-05-14T11:28:19;16.00;;;8.60;;
51636;SDS011;37713;53.254;6.460;2023-05-14T11:30:52;13.48;;;8.15;;
51636;SDS011;37713;53.254;6.460;2023-05-14T11:33:18;11.40;;;7.70;;
51636;SDS011;37713;53.254;6.460;2023-05-14T11:35:48;13.40;;;8.18;;
51636;SDS011;37713;53.254;6.460;2023-05-14T11:38:14;10.38;;;7.30;;
51636;SDS011;37713;53.254;6.460;2023-05-14T11:40:50;13.43;;;7.78;;
51636;SDS011;37713;53.254;6.460;2023-05-14T11:43:20;10.95;;;7.10;;
51636;SDS011;37713;53.254;6.460;2023-05-14T11:45:49;14.70;;;8.20;;
51636;SDS011;37713;53.254;6.460;2023-05-14T11:48:16;12.52;;;8.13;;
51636;SDS011;37713;53.254;6.460;2023-05-14T11:50:46;11.32;;;7.80;;
51636;SDS011;37713;53.254;6.460;2023-05-14T11:53:20;12.57;;;7.80;;
51636;SDS011;37713;53.254;6.460;2023-05-14T11:55:50;10.52;;;6.38;;
51636;SDS011;37713;53.254;6.460;2023-05-14T11:58:21;11.65;;;6.97;;
51636;SDS011;37713;53.254;6.460;2023-05-14T12:00:48;12.43;;;6.65;;
51636;SDS011;37713;53.254;6.460;2023-05-14T12:03:14;10.23;;;6.72;;
51636;SDS011;37713;53.254;6.460;2023-05-14T12:05:53;11.50;;;7.28;;
51636;SDS011;37713;53.254;6.460;2023-05-14T12:08:39;8.43;;;6.28;;
51636;SDS011;37713;53.254;6.460;2023-05-14T12:11:05;13.68;;;7.20;;
51636;SDS011;37713;53.254;6.460;2023-05-14T12:13:33;16.80;;;6.82;;
51636;SDS011;37713;53.254;6.460;2023-05-14T12:16:00;12.80;;;6.85;;
51636;SDS011;37713;53.254;6.460;2023-05-14T12:18:27;12.18;;;6.93;;
51636;SDS011;37713;53.254;6.460;2023-05-14T12:20:54;11.63;;;7.53;;
51636;SDS011;37713;53.254;6.460;2023-05-14T12:23:26;11.77;;;8.27;;
51636;SDS011;37713;53.254;6.460;2023-05-14T12:25:53;9.45;;;6.38;;
51636;SDS011;37713;53.254;6.460;2023-05-14T12:28:19;13.65;;;6.93;;
51636;SDS011;37713;53.254;6.460;2023-05-14T12:30:47;11.90;;;8.23;;
51636;SDS011;37713;53.254;6.460;2023-05-14T12:33:19;14.00;;;7.65;;
51636;SDS011;37713;53.254;6.460;2023-05-14T12:35:47;14.07;;;7.53;;
51636;SDS011;37713;53.254;6.460;2023-05-14T12:38:26;16.25;;;7.38;;
51636;SDS011;37713;53.254;6.460;2023-05-14T12:40:52;12.68;;;6.82;;
51636;SDS011;37713;53.254;6.460;2023-05-14T12:43:18;11.52;;;7.90;;
51636;SDS011;37713;53.254;6.460;2023-05-14T12:45:44;20.65;;;7.35;;
51636;SDS011;37713;53.254;6.460;2023-05-14T12:48:10;11.95;;;6.93;;
51636;SDS011;37713;53.254;6.460;2023-05-14T12:50:37;13.23;;;8.05;;
51636;SDS011;37713;53.254;6.460;2023-05-14T12:53:03;13.68;;;6.30;;
51636;SDS011;37713;53.254;6.460;2023-05-14T12:55:29;14.30;;;6.30;;
51636;SDS011;37713;53.254;6.460;2023-05-14T12:57:55;14.20;;;5.95;;
51636;SDS011;37713;53.254;6.460;2023-05-14T13:00:21;8.88;;;5.60;;
51636;SDS011;37713;53.254;6.460;2023-05-14T13:02:47;9.18;;;5.30;;
51636;SDS011;37713;53.254;6.460;2023-05-14T13:05:13;13.13;;;7.45;;
51636;SDS011;37713;53.254;6.460;2023-05-14T13:07:39;13.00;;;8.85;;
51636;SDS011;37713;53.254;6.460;2023-05-14T13:10:05;18.13;;;9.48;;
51636;SDS011;37713;53.254;6.460;2023-05-14T13:12:32;20.55;;;10.25;;
51636;SDS011;37713;53.254;6.460;2023-05-14T13:14:58;13.90;;;9.57;;
51636;SDS011;37713;53.254;6.460;2023-05-14T13:17:23;19.58;;;9.85;;
51636;SDS011;37713;53.254;6.460;2023-05-14T13:19:52;50.03;;;10.90;;
51636;SDS011;37713;53.254;6.460;2023-05-14T13:22:18;16.98;;;10.05;;
51636;SDS011;37713;53.254;6.460;2023-05-14T13:24:43;16.23;;;10.25;;
51636;SDS011;37713;53.254;6.460;2023-05-14T13:27:10;16.27;;;10.27;;
51636;SDS011;37713;53.254;6.460;2023-05-14T13:29:36;15.32;;;10.23;;
51636;SDS011;37713;53.254;6.460;2023-05-14T13:32:01;16.25;;;9.70;;
51636;SDS011;37713;53.254;6.460;2023-05-14T13:34:27;19.45;;;10.82;;
51636;SDS011;37713;53.254;6.460;2023-05-14T13:36:53;15.77;;;11.20;;
51636;SDS011;37713;53.254;6.460;2023-05-14T13:39:20;17.42;;;10.68;;
51636;SDS011;37713;53.254;6.460;2023-05-14T13:41:47;15.70;;;10.13;;
51636;SDS011;37713;53.254;6.460;2023-05-14T13:44:14;15.80;;;11.07;;
51636;SDS011;37713;53.254;6.460;2023-05-14T13:46:40;43.75;;;12.63;;
51636;SDS011;37713;53.254;6.460;2023-05-14T13:49:06;18.15;;;10.15;;
51636;SDS011;37713;53.254;6.460;2023-05-14T13:51:32;15.95;;;10.82;;
51636;SDS011;37713;53.254;6.460;2023-05-14T13:53:58;27.67;;;11.60;;
51636;SDS011;37713;53.254;6.460;2023-05-14T13:56:23;18.08;;;11.43;;
51636;SDS011;37713;53.254;6.460;2023-05-14T13:58:50;16.25;;;11.20;;
51636;SDS011;37713;53.254;6.460;2023-05-14T14:01:16;17.15;;;12.02;;
51636;SDS011;37713;53.254;6.460;2023-05-14T14:03:41;19.15;;;11.25;;
51636;SDS011;37713;53.254;6.460;2023-05-14T14:06:07;17.48;;;11.55;;
51636;SDS011;37713;53.254;6.460;2023-05-14T14:08:33;15.10;;;11.60;;
51636;SDS011;37713;53.254;6.460;2023-05-14T14:10:59;19.60;;;11.40;;
51636;SDS011;37713;53.254;6.460;2023-05-14T14:13:24;17.83;;;12.65;;
51636;SDS011;37713;53.254;6.460;2023-05-14T14:15:50;18.38;;;12.82;;
51636;SDS011;37713;53.254;6.460;2023-05-14T14:18:16;17.40;;;11.68;;
51636;SDS011;37713;53.254;6.460;2023-05-14T14:20:42;17.70;;;11.88;;
51636;SDS011;37713;53.254;6.460;2023-05-14T14:23:07;18.65;;;11.60;;
51636;SDS011;37713;53.254;6.460;2023-05-14T14:25:33;138.35;;;23.40;;
51636;SDS011;37713;53.254;6.460;2023-05-14T14:27:59;16.65;;;11.10;;
51636;SDS011;37713;53.254;6.460;2023-05-14T14:30:25;17.48;;;11.00;;
51636;SDS011;37713;53.254;6.460;2023-05-14T14:32:50;20.52;;;11.25;;
51636;SDS011;37713;53.254;6.460;2023-05-14T14:35:17;17.08;;;11.75;;
51636;SDS011;37713;53.254;6.460;2023-05-14T14:37:44;17.20;;;10.88;;
51636;SDS011;37713;53.254;6.460;2023-05-14T14:40:14;17.85;;;10.93;;